sensor_id;sensor_type;location;lat;lon;timestamp;pressure;altitude;pressure_sealevel;temperature;humidity
16978;BME280;8605;52.548;4.918;2024-02-21T00:00:28;102117.19;;;8.48;99.96
16978;BME280;8605;52.548;4.918;2024-02-21T00:02:56;102110.00;;;8.48;99.80
16978;BME280;8605;52.548;4.918;2024-02-21T00:05:26;102110.13;;;8.47;99.15
16978;BME280;8605;52.548;4.918;2024-02-21T00:07:54;102104.50;;;8.50;99.77
16978;BME280;8605;52.548;4.918;2024-02-21T00:10:22;102097.47;;;8.49;99.66
16978;BME280;8605;52.548;4.918;2024-02-21T00:12:50;102103.56;;;8.51;99.74
16978;BME280;8605;52.548;4.918;2024-02-21T00:15:18;102098.44;;;8.48;99.83
16978;BME280;8605;52.548;4.918;2024-02-21T00:17:47;102095.75;;;8.48;99.97
16978;BME280;8605;52.548;4.918;2024-02-21T00:20:15;102093.06;;;8.48;99.41
16978;BME280;8605;52.548;4.918;2024-02-21T00:22:44;102086.09;;;8.45;99.26
16978;BME280;8605;52.548;4.918;2024-02-21T00:25:12;102088.66;;;8.47;99.74
16978;BME280;8605;52.548;4.918;2024-02-21T00:27:39;102089.72;;;8.44;99.82
16978;BME280;8605;52.548;4.918;2024-02-21T00:30:08;102084.38;;;8.44;98.89
16978;BME280;8605;52.548;4.918;2024-02-21T00:32:36;102086.94;;;8.46;99.59
16978;BME280;8605;52.548;4.918;2024-02-21T00:35:06;102085.97;;;8.47;99.49
16978;BME280;8605;52.548;4.918;2024-02-21T00:37:34;102081.38;;;8.49;98.96
16978;BME280;8605;52.548;4.918;2024-02-21T00:40:02;102074.16;;;8.49;99.08
16978;BME280;8605;52.548;4.918;2024-02-21T00:42:30;102075.88;;;8.50;99.23
16978;BME280;8605;52.548;4.918;2024-02-21T00:44:58;102066.25;;;8.48;100.00
16978;BME280;8605;52.548;4.918;2024-02-21T00:47:26;102061.72;;;8.48;99.42
16978;BME280;8605;52.548;4.918;2024-02-21T00:49:53;102055.63;;;8.46;99.89
16978;BME280;8605;52.548;4.918;2024-02-21T00:52:23;102065.50;;;8.46;99.08
16978;BME280;8605;52.548;4.918;2024-02-21T00:54:50;102064.63;;;8.45;99.85
16978;BME280;8605;52.548;4.918;2024-02-21T00:57:20;102057.22;;;8.49;99.59
16978;BME280;8605;52.548;4.918;2024-02-21T00:59:48;102054.00;;;8.43;99.79
16978;BME280;8605;52.548;4.918;2024-02-21T01:02:16;102058.06;;;8.49;100.00
16978;BME280;8605;52.548;4.918;2024-02-21T01:04:44;102059.78;;;8.50;99.09
16978;BME280;8605;52.548;4.918;2024-02-21T01:07:12;102063.41;;;8.49;99.48
16978;BME280;8605;52.548;4.918;2024-02-21T01:09:41;102052.47;;;8.52;99.44
16978;BME280;8605;52.548;4.918;2024-02-21T01:12:09;102039.16;;;8.51;98.98
16978;BME280;8605;52.548;4.918;2024-02-21T01:14:36;102037.59;;;8.48;99.26
16978;BME280;8605;52.548;4.918;2024-02-21T01:17:04;102050.75;;;8.51;98.89
16978;BME280;8605;52.548;4.918;2024-02-21T01:19:32;102044.53;;;8.51;99.19
16978;BME280;8605;52.548;4.918;2024-02-21T01:22:01;102047.09;;;8.52;98.74
16978;BME280;8605;52.548;4.918;2024-02-21T01:24:29;102047.22;;;8.51;99.42
16978;BME280;8605;52.548;4.918;2024-02-21T01:26:58;102043.56;;;8.52;98.75
16978;BME280;8605;52.548;4.918;2024-02-21T01:29:26;102037.34;;;8.51;98.91
16978;BME280;8605;52.548;4.918;2024-02-21T01:31:54;102032.94;;;8.50;99.30
16978;BME280;8605;52.548;4.918;2024-02-21T01:34:22;102035.63;;;8.50;99.24
16978;BME280;8605;52.548;4.918;2024-02-21T01:36:50;102025.75;;;8.51;99.25
16978;BME280;8605;52.548;4.918;2024-02-21T01:39:17;102015.13;;;8.49;99.63
16978;BME280;8605;52.548;4.918;2024-02-21T01:41:45;102008.69;;;8.52;98.75
16978;BME280;8605;52.548;4.918;2024-02-21T01:44:15;102006.88;;;8.52;98.79
16978;BME280;8605;52.548;4.918;2024-02-21T01:46:42;102013.09;;;8.53;99.10
16978;BME280;8605;52.548;4.918;2024-02-21T01:49:10;102019.31;;;8.53;99.03
16978;BME280;8605;52.548;4.918;2024-02-21T01:51:38;102014.91;;;8.52;99.68
16978;BME280;8605;52.548;4.918;2024-02-21T01:54:07;102016.63;;;8.53;99.49
16978;BME280;8605;52.548;4.918;2024-02-21T01:56:36;102012.34;;;8.51;99.59
16978;BME280;8605;52.548;4.918;2024-02-21T01:59:04;102022.22;;;8.50;98.66
16978;BME280;8605;52.548;4.918;2024-02-21T02:01:33;102021.25;;;8.51;99.54
16978;BME280;8605;52.548;4.918;2024-02-21T02:04:02;102013.19;;;8.51;98.78
16978;BME280;8605;52.548;4.918;2024-02-21T02:06:31;102016.75;;;8.52;99.56
16978;BME280;8605;52.548;4.918;2024-02-21T02:08:59;102014.16;;;8.50;99.83
16978;BME280;8605;52.548;4.918;2024-02-21T02:11:27;101996.59;;;8.46;99.26
16978;BME280;8605;52.548;4.918;2024-02-21T02:13:55;102000.03;;;8.48;99.13
16978;BME280;8605;52.548;4.918;2024-02-21T02:16:23;101989.88;;;8.40;99.22
16978;BME280;8605;52.548;4.918;2024-02-21T02:18:52;102002.72;;;8.48;99.56
16978;BME280;8605;52.548;4.918;2024-02-21T02:21:24;101996.00;;;8.43;99.95
16978;BME280;8605;52.548;4.918;2024-02-21T02:23:56;101983.66;;;8.40;99.20
16978;BME280;8605;52.548;4.918;2024-02-21T02:26:24;102001.97;;;8.46;99.26
16978;BME280;8605;52.548;4.918;2024-02-21T02:28:51;101990.75;;;8.41;100.00
16978;BME280;8605;52.548;4.918;2024-02-21T02:31:19;101996.72;;;8.45;99.99
16978;BME280;8605;52.548;4.918;2024-02-21T02:33:47;101990.50;;;8.44;99.31
16978;BME280;8605;52.548;4.918;2024-02-21T02:36:15;101986.09;;;8.43;100.00
16978;BME280;8605;52.548;4.918;2024-02-21T02:38:44;101990.63;;;8.43;99.63
16978;BME280;8605;52.548;4.918;2024-02-21T02:41:13;101977.22;;;8.43;100.00
16978;BME280;8605;52.548;4.918;2024-02-21T02:43:41;101974.66;;;8.41;100.00
16978;BME280;8605;52.548;4.918;2024-02-21T02:46:09;101975.38;;;8.43;100.00
16978;BME280;8605;52.548;4.918;2024-02-21T02:48:37;101972.81;;;8.41;100.00
16978;BME280;8605;52.548;4.918;2024-02-21T02:51:05;101971.97;;;8.41;99.99
16978;BME280;8605;52.548;4.918;2024-02-21T02:53:33;101961.13;;;8.43;100.00
16978;BME280;8605;52.548;4.918;2024-02-21T02:56:01;101948.69;;;8.41;100.00
16978;BME280;8605;52.548;4.918;2024-02-21T02:58:31;101945.03;;;8.43;100.00
16978;BME280;8605;52.548;4.918;2024-02-21T03:00:59;101931.63;;;8.43;100.00
16978;BME280;8605;52.548;4.918;2024-02-21T03:03:26;101942.69;;;8.38;100.00
16978;BME280;8605;52.548;4.918;2024-02-21T03:05:54;101937.00;;;8.43;100.00
16978;BME280;8605;52.548;4.918;2024-02-21T03:08:22;101934.53;;;8.39;100.00
16978;BME280;8605;52.548;4.918;2024-02-21T03:10:50;101935.28;;;8.41;100.00
16978;BME280;8605;52.548;4.918;2024-02-21T03:13:17;101932.59;;;8.41;99.92
16978;BME280;8605;52.548;4.918;2024-02-21T03:15:47;101922.09;;;8.38;100.00
16978;BME280;8605;52.548;4.918;2024-02-21T03:18:14;101921.13;;;8.39;100.00
16978;BME280;8605;52.548;4.918;2024-02-21T03:20:42;101908.78;;;8.37;100.00
16978;BME280;8605;52.548;4.918;2024-02-21T03:23:10;101916.72;;;8.38;100.00
16978;BME280;8605;52.548;4.918;2024-02-21T03:25:38;101892.69;;;8.37;100.00
16978;BME280;8605;52.548;4.918;2024-02-21T03:28:05;101883.69;;;8.38;100.00
16978;BME280;8605;52.548;4.918;2024-02-21T03:30:33;101884.91;;;8.34;100.00
16978;BME280;8605;52.548;4.918;2024-02-21T03:33:03;101877.81;;;8.33;100.00
16978;BME280;8605;52.548;4.918;2024-02-21T03:35:31;101870.63;;;8.33;99.89
16978;BME280;8605;52.548;4.918;2024-02-21T03:37:59;101871.06;;;8.27;100.00
16978;BME280;8605;52.548;4.918;2024-02-21T03:40:27;101871.72;;;8.31;100.00
16978;BME280;8605;52.548;4.918;2024-02-21T03:42:54;101871.72;;;8.31;100.00
16978;BME280;8605;52.548;4.918;2024-02-21T03:45:23;101879.75;;;8.31;100.00
16978;BME280;8605;52.548;4.918;2024-02-21T03:47:50;101881.47;;;8.32;100.00
16978;BME280;8605;52.548;4.918;2024-02-21T03:50:19;101869.88;;;8.31;100.00
16978;BME280;8605;52.548;4.918;2024-02-21T03:52:47;101866.25;;;8.32;100.00
16978;BME280;8605;52.548;4.918;2024-02-21T03:55:15;101870.63;;;8.33;100.00
16978;BME280;8605;52.548;4.918;2024-02-21T03:57:44;101869.66;;;8.34;100.00
16978;BME280;8605;52.548;4.918;2024-02-21T04:00:12;101853.47;;;8.36;100.00
16978;BME280;8605;52.548;4.918;2024-02-21T04:02:40;101859.06;;;8.33;100.00
16978;BME280;8605;52.548;4.918;2024-02-21T04:05:08;101858.09;;;8.34;100.00
16978;BME280;8605;52.548;4.918;2024-02-21T04:07:39;101872.25;;;8.36;100.00
16978;BME280;8605;52.548;4.918;2024-02-21T04:10:08;101863.34;;;8.35;100.00
16978;BME280;8605;52.548;4.918;2024-02-21T04:12:36;101871.38;;;8.35;100.00
16978;BME280;8605;52.548;4.918;2024-02-21T04:15:05;101861.50;;;8.36;100.00
16978;BME280;8605;52.548;4.918;2024-02-21T04:17:34;101864.06;;;8.37;100.00
16978;BME280;8605;52.548;4.918;2024-02-21T04:20:03;101863.09;;;8.38;100.00
16978;BME280;8605;52.548;4.918;2024-02-21T04:22:32;101863.94;;;8.39;100.00
16978;BME280;8605;52.548;4.918;2024-02-21T04:25:05;101870.28;;;8.38;100.00
16978;BME280;8605;52.548;4.918;2024-02-21T04:27:33;101856.75;;;8.39;100.00
16978;BME280;8605;52.548;4.918;2024-02-21T04:30:01;101856.00;;;8.37;100.00
16978;BME280;8605;52.548;4.918;2024-02-21T04:32:29;101861.16;;;8.40;100.00
16978;BME280;8605;52.548;4.918;2024-02-21T04:34:57;101851.50;;;8.38;100.00
16978;BME280;8605;52.548;4.918;2024-02-21T04:37:25;101845.91;;;8.41;100.00
16978;BME280;8605;52.548;4.918;2024-02-21T04:39:53;101842.38;;;8.40;100.00
16978;BME280;8605;52.548;4.918;2024-02-21T04:42:22;101841.41;;;8.41;100.00
16978;BME280;8605;52.548;4.918;2024-02-21T04:44:50;101838.72;;;8.41;100.00
16978;BME280;8605;52.548;4.918;2024-02-21T04:47:18;101840.19;;;8.46;100.00
16978;BME280;8605;52.548;4.918;2024-02-21T04:49:46;101830.44;;;8.45;100.00
16978;BME280;8605;52.548;4.918;2024-02-21T04:52:14;101833.97;;;8.45;100.00
16978;BME280;8605;52.548;4.918;2024-02-21T04:54:42;101829.44;;;8.46;100.00
16978;BME280;8605;52.548;4.918;2024-02-21T04:57:09;101828.38;;;8.48;100.00
16978;BME280;8605;52.548;4.918;2024-02-21T04:59:39;101819.59;;;8.46;100.00
16978;BME280;8605;52.548;4.918;2024-02-21T05:02:06;101812.63;;;8.43;100.00
16978;BME280;8605;52.548;4.918;2024-02-21T05:04:37;101814.34;;;8.45;100.00
16978;BME280;8605;52.548;4.918;2024-02-21T05:07:06;101812.50;;;8.45;100.00
16978;BME280;8605;52.548;4.918;2024-02-21T05:09:34;101802.53;;;8.47;99.95
16978;BME280;8605;52.548;4.918;2024-02-21T05:12:02;101806.06;;;8.48;100.00
16978;BME280;8605;52.548;4.918;2024-02-21T05:14:30;101803.38;;;8.48;99.79
16978;BME280;8605;52.548;4.918;2024-02-21T05:17:00;101790.81;;;8.48;99.96
16978;BME280;8605;52.548;4.918;2024-02-21T05:19:27;101793.50;;;8.48;99.81
16978;BME280;8605;52.548;4.918;2024-02-21T05:21:55;101779.47;;;8.45;99.93
16978;BME280;8605;52.548;4.918;2024-02-21T05:24:23;101786.31;;;8.49;100.00
16978;BME280;8605;52.548;4.918;2024-02-21T05:26:51;101778.38;;;8.47;100.00
16978;BME280;8605;52.548;4.918;2024-02-21T05:29:19;101770.44;;;8.46;99.90
16978;BME280;8605;52.548;4.918;2024-02-21T05:31:56;101758.00;;;8.45;99.46
16978;BME280;8605;52.548;4.918;2024-02-21T05:34:26;101764.84;;;8.49;99.69
16978;BME280;8605;52.548;4.918;2024-02-21T05:36:54;101750.59;;;8.48;100.00
16978;BME280;8605;52.548;4.918;2024-02-21T05:39:24;101742.41;;;8.50;99.42
16978;BME280;8605;52.548;4.918;2024-02-21T05:41:51;101734.50;;;8.48;100.00
16978;BME280;8605;52.548;4.918;2024-02-21T05:44:19;101730.97;;;8.48;100.00
16978;BME280;8605;52.548;4.918;2024-02-21T05:46:48;101732.78;;;8.47;99.83
16978;BME280;8605;52.548;4.918;2024-02-21T05:49:16;101727.41;;;8.47;99.92
16978;BME280;8605;52.548;4.918;2024-02-21T05:51:46;101728.38;;;8.46;99.54
16978;BME280;8605;52.548;4.918;2024-02-21T05:54:13;101719.38;;;8.47;99.01
16978;BME280;8605;52.548;4.918;2024-02-21T05:56:44;101720.34;;;8.46;99.38
16978;BME280;8605;52.548;4.918;2024-02-21T05:59:12;101722.44;;;8.43;99.30
16978;BME280;8605;52.548;4.918;2024-02-21T06:01:40;101718.53;;;8.47;99.54
16978;BME280;8605;52.548;4.918;2024-02-21T06:04:08;101727.41;;;8.47;99.56
16978;BME280;8605;52.548;4.918;2024-02-21T06:06:36;101710.00;;;8.41;99.53
16978;BME280;8605;52.548;4.918;2024-02-21T06:09:06;101721.19;;;8.47;98.88
16978;BME280;8605;52.548;4.918;2024-02-21T06:11:34;101723.88;;;8.47;98.90
16978;BME280;8605;52.548;4.918;2024-02-21T06:14:04;101727.41;;;8.47;98.61
16978;BME280;8605;52.548;4.918;2024-02-21T06:16:32;101724.75;;;8.47;99.26
16978;BME280;8605;52.548;4.918;2024-02-21T06:19:00;101720.22;;;8.48;98.46
16978;BME280;8605;52.548;4.918;2024-02-21T06:21:29;101727.41;;;8.47;98.67
16978;BME280;8605;52.548;4.918;2024-02-21T06:23:57;101729.25;;;8.47;99.40
16978;BME280;8605;52.548;4.918;2024-02-21T06:26:26;101733.63;;;8.48;98.45
16978;BME280;8605;52.548;4.918;2024-02-21T06:28:54;101735.47;;;8.47;98.91
16978;BME280;8605;52.548;4.918;2024-02-21T06:31:22;101739.00;;;8.48;99.01
16978;BME280;8605;52.548;4.918;2024-02-21T06:33:49;101734.50;;;8.48;98.78
16978;BME280;8605;52.548;4.918;2024-02-21T06:36:17;101731.06;;;8.46;98.27
16978;BME280;8605;52.548;4.918;2024-02-21T06:38:45;101729.13;;;8.48;98.78
16978;BME280;8605;52.548;4.918;2024-02-21T06:41:16;101724.75;;;8.47;99.08
16978;BME280;8605;52.548;4.918;2024-02-21T06:43:48;101720.22;;;8.48;98.87
16978;BME280;8605;52.548;4.918;2024-02-21T06:46:25;101722.91;;;8.48;98.66
16978;BME280;8605;52.548;4.918;2024-02-21T06:48:55;101726.44;;;8.48;98.51
16978;BME280;8605;52.548;4.918;2024-02-21T06:51:24;101717.28;;;8.51;98.28
16978;BME280;8605;52.548;4.918;2024-02-21T06:53:52;101713.91;;;8.49;98.36
16978;BME280;8605;52.548;4.918;2024-02-21T06:56:20;101699.75;;;8.47;98.47
16978;BME280;8605;52.548;4.918;2024-02-21T06:58:49;101706.09;;;8.46;98.13
16978;BME280;8605;52.548;4.918;2024-02-21T07:01:17;101704.00;;;8.49;98.54
16978;BME280;8605;52.548;4.918;2024-02-21T07:03:45;101701.47;;;8.48;98.42
16978;BME280;8605;52.548;4.918;2024-02-21T07:06:13;101690.72;;;8.48;97.70
16978;BME280;8605;52.548;4.918;2024-02-21T07:08:41;101693.53;;;8.46;98.71
16978;BME280;8605;52.548;4.918;2024-02-21T07:11:09;101694.38;;;8.47;98.21
16978;BME280;8605;52.548;4.918;2024-02-21T07:13:37;101690.72;;;8.48;98.72
16978;BME280;8605;52.548;4.918;2024-02-21T07:16:07;101680.97;;;8.47;98.00
16978;BME280;8605;52.548;4.918;2024-02-21T07:18:35;101676.84;;;8.43;98.05
16978;BME280;8605;52.548;4.918;2024-02-21T07:21:03;101673.91;;;8.46;98.74
16978;BME280;8605;52.548;4.918;2024-02-21T07:23:31;101676.56;;;8.46;97.58
16978;BME280;8605;52.548;4.918;2024-02-21T07:25:59;101670.25;;;8.47;97.52
16978;BME280;8605;52.548;4.918;2024-02-21T07:28:27;101679.13;;;8.47;97.74
16978;BME280;8605;52.548;4.918;2024-02-21T07:30:54;101657.81;;;8.46;97.64
16978;BME280;8605;52.548;4.918;2024-02-21T07:33:23;101650.50;;;8.48;97.49
16978;BME280;8605;52.548;4.918;2024-02-21T07:35:51;101639.75;;;8.48;97.54
16978;BME280;8605;52.548;4.918;2024-02-21T07:38:19;101637.94;;;8.48;97.50
16978;BME280;8605;52.548;4.918;2024-02-21T07:40:47;101626.22;;;8.49;98.17
16978;BME280;8605;52.548;4.918;2024-02-21T07:43:14;101624.38;;;8.50;97.60
16978;BME280;8605;52.548;4.918;2024-02-21T07:45:42;101625.22;;;8.50;97.50
16978;BME280;8605;52.548;4.918;2024-02-21T07:48:10;101625.38;;;8.49;97.64
16978;BME280;8605;52.548;4.918;2024-02-21T07:50:39;101628.88;;;8.49;97.82
16978;BME280;8605;52.548;4.918;2024-02-21T07:53:07;101627.06;;;8.50;98.28
16978;BME280;8605;52.548;4.918;2024-02-21T07:55:35;101631.44;;;8.51;98.20
16978;BME280;8605;52.548;4.918;2024-02-21T07:58:03;101629.75;;;8.50;98.10
16978;BME280;8605;52.548;4.918;2024-02-21T08:00:31;101628.06;;;8.49;97.78
16978;BME280;8605;52.548;4.918;2024-02-21T08:02:59;101631.91;;;8.56;97.30
16978;BME280;8605;52.548;4.918;2024-02-21T08:05:26;101631.91;;;8.56;97.10
16978;BME280;8605;52.548;4.918;2024-02-21T08:07:58;101612.56;;;8.52;97.19
16978;BME280;8605;52.548;4.918;2024-02-21T08:10:25;101611.47;;;8.55;97.23
16978;BME280;8605;52.548;4.918;2024-02-21T08:12:53;101610.47;;;8.56;97.98
16978;BME280;8605;52.548;4.918;2024-02-21T08:15:21;101599.88;;;8.54;97.71
16978;BME280;8605;52.548;4.918;2024-02-21T08:17:52;101606.81;;;8.57;97.86
16978;BME280;8605;52.548;4.918;2024-02-21T08:20:20;101604.00;;;8.58;97.45
16978;BME280;8605;52.548;4.918;2024-02-21T08:22:47;101597.78;;;8.58;97.80
16978;BME280;8605;52.548;4.918;2024-02-21T08:25:17;101604.00;;;8.58;97.88
16978;BME280;8605;52.548;4.918;2024-02-21T08:27:45;101596.56;;;8.62;97.00
16978;BME280;8605;52.548;4.918;2024-02-21T08:30:15;101588.66;;;8.60;96.66
16978;BME280;8605;52.548;4.918;2024-02-21T08:32:43;101581.69;;;8.58;97.00
16978;BME280;8605;52.548;4.918;2024-02-21T08:35:11;101576.78;;;8.63;97.12
16978;BME280;8605;52.548;4.918;2024-02-21T08:37:39;101574.84;;;8.65;97.33
16978;BME280;8605;52.548;4.918;2024-02-21T08:40:10;101567.66;;;8.65;96.61
16978;BME280;8605;52.548;4.918;2024-02-21T08:42:40;101564.97;;;8.65;96.91
16978;BME280;8605;52.548;4.918;2024-02-21T08:45:08;101574.72;;;8.66;96.62
16978;BME280;8605;52.548;4.918;2024-02-21T08:47:39;101569.25;;;8.68;96.88
16978;BME280;8605;52.548;4.918;2024-02-21T08:50:07;101563.88;;;8.68;97.47
16978;BME280;8605;52.548;4.918;2024-02-21T08:52:52;101579.81;;;8.69;97.06
16978;BME280;8605;52.548;4.918;2024-02-21T08:55:20;101566.16;;;8.72;96.37
16978;BME280;8605;52.548;4.918;2024-02-21T08:57:50;101566.16;;;8.72;96.93
16978;BME280;8605;52.548;4.918;2024-02-21T09:00:18;101551.44;;;8.67;96.14
16978;BME280;8605;52.548;4.918;2024-02-21T09:02:50;101551.44;;;8.67;96.17
16978;BME280;8605;52.548;4.918;2024-02-21T09:05:18;101548.22;;;8.73;96.15
16978;BME280;8605;52.548;4.918;2024-02-21T09:07:47;101546.28;;;8.75;95.59
16978;BME280;8605;52.548;4.918;2024-02-21T09:10:15;101541.91;;;8.74;96.02
16978;BME280;8605;52.548;4.918;2024-02-21T09:12:42;101535.56;;;8.75;96.00
16978;BME280;8605;52.548;4.918;2024-02-21T09:15:12;101534.53;;;8.76;96.21
16978;BME280;8605;52.548;4.918;2024-02-21T09:17:39;101529.06;;;8.77;95.76
16978;BME280;8605;52.548;4.918;2024-02-21T09:20:08;101511.13;;;8.78;95.72
16978;BME280;8605;52.548;4.918;2024-02-21T09:22:38;101517.06;;;8.81;95.88
16978;BME280;8605;52.548;4.918;2024-02-21T09:25:08;101511.69;;;8.81;96.53
16978;BME280;8605;52.548;4.918;2024-02-21T09:27:38;101503.53;;;8.83;95.88
16978;BME280;8605;52.548;4.918;2024-02-21T09:30:09;101496.47;;;8.82;96.28
16978;BME280;8605;52.548;4.918;2024-02-21T09:32:38;101492.78;;;8.83;96.34
16978;BME280;8605;52.548;4.918;2024-02-21T09:35:07;101491.41;;;8.89;96.53
16978;BME280;8605;52.548;4.918;2024-02-21T09:37:35;101482.78;;;8.85;95.55
16978;BME280;8605;52.548;4.918;2024-02-21T09:40:05;101471.66;;;8.90;95.76
16978;BME280;8605;52.548;4.918;2024-02-21T09:42:37;101460.66;;;8.93;95.43
16978;BME280;8605;52.548;4.918;2024-02-21T09:45:08;101463.06;;;8.96;95.68
16978;BME280;8605;52.548;4.918;2024-02-21T09:47:52;101454.03;;;8.97;95.27
16978;BME280;8605;52.548;4.918;2024-02-21T09:50:24;101437.69;;;9.00;95.29
16978;BME280;8605;52.548;4.918;2024-02-21T09:52:54;101440.22;;;9.01;95.41
16978;BME280;8605;52.548;4.918;2024-02-21T09:55:22;101427.06;;;8.98;94.68
16978;BME280;8605;52.548;4.918;2024-02-21T09:57:51;101433.88;;;9.02;95.65
16978;BME280;8605;52.548;4.918;2024-02-21T10:00:20;101424.09;;;9.01;95.97
16978;BME280;8605;52.548;4.918;2024-02-21T10:02:50;101411.53;;;9.02;95.71
16978;BME280;8605;52.548;4.918;2024-02-21T10:05:18;101415.81;;;9.04;95.16
16978;BME280;8605;52.548;4.918;2024-02-21T10:07:48;101403.25;;;9.05;95.81
16978;BME280;8605;52.548;4.918;2024-02-21T10:10:16;101404.09;;;9.05;95.49
16978;BME280;8605;52.548;4.918;2024-02-21T10:12:49;101401.41;;;9.05;94.86
16978;BME280;8605;52.548;4.918;2024-02-21T10:15:20;101387.25;;;9.03;94.85
16978;BME280;8605;52.548;4.918;2024-02-21T10:17:58;101383.59;;;9.04;95.26
16978;BME280;8605;52.548;4.918;2024-02-21T10:20:26;101374.81;;;9.02;94.12
16978;BME280;8605;52.548;4.918;2024-02-21T10:23:01;101373.59;;;9.06;94.51
16978;BME280;8605;52.548;4.918;2024-02-21T10:25:30;101379.94;;;9.05;94.38
16978;BME280;8605;52.548;4.918;2024-02-21T10:27:58;101377.69;;;9.10;95.02
16978;BME280;8605;52.548;4.918;2024-02-21T10:30:26;101369.75;;;9.09;94.77
16978;BME280;8605;52.548;4.918;2024-02-21T10:32:55;101365.25;;;9.09;94.73
16978;BME280;8605;52.548;4.918;2024-02-21T10:35:27;101361.44;;;9.12;94.78
16978;BME280;8605;52.548;4.918;2024-02-21T10:37:56;101360.47;;;9.13;94.83
16978;BME280;8605;52.548;4.918;2024-02-21T10:40:24;101353.25;;;9.13;94.35
16978;BME280;8605;52.548;4.918;2024-02-21T10:42:56;101362.00;;;9.15;93.82
16978;BME280;8605;52.548;4.918;2024-02-21T10:45:30;101353.97;;;9.15;93.99
16978;BME280;8605;52.548;4.918;2024-02-21T10:48:15;101335.59;;;9.11;94.10
16978;BME280;8605;52.548;4.918;2024-02-21T10:50:53;101337.41;;;9.10;93.48
16978;BME280;8605;52.548;4.918;2024-02-21T10:53:36;101320.88;;;9.05;93.05
16978;BME280;8605;52.548;4.918;2024-02-21T10:56:16;101327.53;;;9.11;93.96
16978;BME280;8605;52.548;4.918;2024-02-21T10:58:48;101310.56;;;9.10;94.13
16978;BME280;8605;52.548;4.918;2024-02-21T11:01:17;101309.84;;;9.08;93.33
16978;BME280;8605;52.548;4.918;2024-02-21T11:03:49;101288.97;;;9.12;93.98
16978;BME280;8605;52.548;4.918;2024-02-21T11:06:19;101289.22;;;9.09;94.01
16978;BME280;8605;52.548;4.918;2024-02-21T11:08:59;101301.25;;;9.14;92.93
16978;BME280;8605;52.548;4.918;2024-02-21T11:11:27;101304.94;;;9.13;93.49
16978;BME280;8605;52.548;4.918;2024-02-21T11:14:08;101298.56;;;9.14;93.21
16978;BME280;8605;52.548;4.918;2024-02-21T11:16:38;101295.72;;;9.06;93.09
16978;BME280;8605;52.548;4.918;2024-02-21T11:19:19;101294.88;;;9.06;93.03
16978;BME280;8605;52.548;4.918;2024-02-21T11:21:48;101304.75;;;9.05;94.01
16978;BME280;8605;52.548;4.918;2024-02-21T11:24:25;101281.84;;;9.01;93.60
16978;BME280;8605;52.548;4.918;2024-02-21T11:26:54;101276.22;;;9.04;94.09
16978;BME280;8605;52.548;4.918;2024-02-21T11:29:25;101264.63;;;9.04;93.60
16978;BME280;8605;52.548;4.918;2024-02-21T11:31:53;101260.84;;;9.06;93.80
16978;BME280;8605;52.548;4.918;2024-02-21T11:34:22;101248.81;;;9.10;93.38
16978;BME280;8605;52.548;4.918;2024-02-21T11:36:52;101258.44;;;9.13;93.78
16978;BME280;8605;52.548;4.918;2024-02-21T11:39:21;101247.00;;;9.11;93.56
16978;BME280;8605;52.548;4.918;2024-02-21T11:42:02;101237.81;;;9.13;93.76
16978;BME280;8605;52.548;4.918;2024-02-21T11:44:31;101234.97;;;9.15;92.89
16978;BME280;8605;52.548;4.918;2024-02-21T11:46:59;101225.94;;;9.16;92.76
16978;BME280;8605;52.548;4.918;2024-02-21T11:49:29;101213.50;;;9.15;92.53
16978;BME280;8605;52.548;4.918;2024-02-21T11:51:58;101208.00;;;9.16;93.03
16978;BME280;8605;52.548;4.918;2024-02-21T11:54:27;101204.47;;;9.16;93.06
16978;BME280;8605;52.548;4.918;2024-02-21T11:56:55;101192.88;;;9.15;92.24
16978;BME280;8605;52.548;4.918;2024-02-21T11:59:23;101184.41;;;9.20;92.10
16978;BME280;8605;52.548;4.918;2024-02-21T12:01:50;101172.25;;;9.26;92.56
16978;BME280;8605;52.548;4.918;2024-02-21T12:04:19;101153.28;;;9.27;92.99
16978;BME280;8605;52.548;4.918;2024-02-21T12:06:49;101149.91;;;9.35;92.04
16978;BME280;8605;52.548;4.918;2024-02-21T12:09:17;101129.84;;;9.39;91.77
16978;BME280;8605;52.548;4.918;2024-02-21T12:11:45;101128.69;;;9.41;92.38
16978;BME280;8605;52.548;4.918;2024-02-21T12:14:16;101127.28;;;9.47;92.60
16978;BME280;8605;52.548;4.918;2024-02-21T12:16:44;101136.63;;;9.43;91.62
16978;BME280;8605;52.548;4.918;2024-02-21T12:19:14;101119.78;;;9.41;92.04
16978;BME280;8605;52.548;4.918;2024-02-21T12:21:43;101099.88;;;9.43;92.98
16978;BME280;8605;52.548;4.918;2024-02-21T12:24:14;101081.50;;;9.39;91.55
16978;BME280;8605;52.548;4.918;2024-02-21T12:26:42;101070.22;;;9.26;91.62
16978;BME280;8605;52.548;4.918;2024-02-21T12:29:10;101088.00;;;9.36;91.96
16978;BME280;8605;52.548;4.918;2024-02-21T12:31:38;101083.94;;;9.32;91.75
16978;BME280;8605;52.548;4.918;2024-02-21T12:34:06;101079.41;;;9.33;91.91
16978;BME280;8605;52.548;4.918;2024-02-21T12:36:40;101068.81;;;9.31;91.94
16978;BME280;8605;52.548;4.918;2024-02-21T12:39:09;101067.66;;;9.34;91.48
16978;BME280;8605;52.548;4.918;2024-02-21T12:41:38;101054.22;;;9.34;90.52
16978;BME280;8605;52.548;4.918;2024-02-21T12:44:07;101030.75;;;9.36;90.21
16978;BME280;8605;52.548;4.918;2024-02-21T12:46:38;101024.25;;;9.38;90.32
16978;BME280;8605;52.548;4.918;2024-02-21T12:49:06;101014.91;;;9.42;90.51
16978;BME280;8605;52.548;4.918;2024-02-21T12:51:35;101008.41;;;9.45;91.06
16978;BME280;8605;52.548;4.918;2024-02-21T12:54:04;101005.56;;;9.46;89.23
16978;BME280;8605;52.548;4.918;2024-02-21T12:56:32;100997.22;;;9.49;88.85
16978;BME280;8605;52.548;4.918;2024-02-21T12:59:01;100990.16;;;9.48;89.96
16978;BME280;8605;52.548;4.918;2024-02-21T13:01:29;100989.28;;;9.48;89.85
16978;BME280;8605;52.548;4.918;2024-02-21T13:03:57;100985.75;;;9.47;90.80
16978;BME280;8605;52.548;4.918;2024-02-21T13:06:27;100974.34;;;9.45;89.86
16978;BME280;8605;52.548;4.918;2024-02-21T13:08:55;100966.56;;;9.42;89.60
16978;BME280;8605;52.548;4.918;2024-02-21T13:11:23;100962.50;;;9.38;90.09
16978;BME280;8605;52.548;4.918;2024-02-21T13:13:53;100942.97;;;9.36;90.15
16978;BME280;8605;52.548;4.918;2024-02-21T13:16:22;100943.84;;;9.37;90.48